Farmersville's Hourly Summary for Saturday, April 15, 2017
Hour Temp
(f)
RH
(%)
Solar Rad.
(MJ/m2)
Rainfall
(in)
Wind
(mph)
4/15/2017 12:00 AM 65 71 0 0 1.86
4/15/2017 1:00 AM 64 74 0 0 2.18
4/15/2017 2:00 AM 65 75 0 0 2.69
4/15/2017 3:00 AM 64 78 0 0 2.27
4/15/2017 4:00 AM 62 84 0 0 0.34
4/15/2017 5:00 AM 61 99 0 0 0
4/15/2017 6:00 AM 60 100 0 0 0
4/15/2017 7:00 AM 61 100 0 0 0.56
4/15/2017 8:00 AM 62 99 0.06 0 1.43
4/15/2017 9:00 AM 64 99 0.37 0 3.46
4/15/2017 10:00 AM 66 89 0.55 0 4.97
4/15/2017 11:00 AM 69 70 1.46 0 5.4
4/15/2017 12:00 PM 72 62 2.25 0 5.55
4/15/2017 1:00 PM 75 59 2.97 0 5.71
4/15/2017 2:00 PM 77 53 3 0 5.85
4/15/2017 3:00 PM 78 54 2.4 0 5.74
4/15/2017 4:00 PM 77 55 1.5 0 4.58
4/15/2017 5:00 PM 76 57 1.06 0 4.54
4/15/2017 6:00 PM 76 57 0.84 0 4.02
4/15/2017 7:00 PM 75 59 0.38 0 3
4/15/2017 8:00 PM 74 63 0.13 0 1.83
4/15/2017 9:00 PM 71 67 0 0 2.63
4/15/2017 10:00 PM 69 72 0 0 2.68
4/15/2017 11:00 PM 68 74 0 0 2.1
Data Summary 68 73 16.97 0.00 3.06